createdAt,value
2023-09-30T00:05:01.547Z,38.55
2023-09-30T00:10:05.173Z,38.53
2023-09-30T00:15:10.033Z,38.30
2023-09-30T00:20:15.769Z,38.35
2023-09-30T00:25:18.772Z,37.67
2023-09-30T00:30:23.172Z,38.15
2023-09-30T00:35:26.726Z,38.33
2023-09-30T00:40:29.797Z,37.67
2023-09-30T00:45:37.062Z,38.47
2023-09-30T00:50:41.541Z,38.08
2023-09-30T00:55:44.476Z,38.72
2023-09-30T01:00:49.968Z,38.67
2023-09-30T01:05:53.702Z,38.65
2023-09-30T01:10:57.775Z,38.45
2023-09-30T01:16:05.324Z,38.78
2023-09-30T01:21:09.477Z,38.17
2023-09-30T01:26:16.269Z,38.72
2023-09-30T01:31:19.207Z,38.38
2023-09-30T01:36:22.188Z,37.78
2023-09-30T01:41:26.492Z,38.38
2023-09-30T01:46:29.498Z,38.13
2023-09-30T01:51:33.198Z,38.17
2023-09-30T01:56:37.616Z,37.85
2023-09-30T02:01:41.797Z,37.92
2023-09-30T02:06:45.177Z,37.83
2023-09-30T02:11:49.517Z,37.83
2023-09-30T02:16:52.547Z,37.83
2023-09-30T02:21:55.567Z,37.58
2023-09-30T02:27:00.200Z,37.47
2023-09-30T02:32:03.540Z,38.00
2023-09-30T02:37:06.631Z,37.85
2023-09-30T02:42:11.103Z,37.70
2023-09-30T02:47:14.101Z,37.75
2023-09-30T02:52:17.885Z,37.97
2023-09-30T02:57:22.503Z,38.40
2023-09-30T03:02:25.617Z,38.13
2023-09-30T03:07:34.382Z,38.45
2023-09-30T03:12:38.720Z,37.75
2023-09-30T03:17:41.768Z,38.20
2023-09-30T03:22:45.154Z,38.05
2023-09-30T03:27:49.836Z,38.00
2023-09-30T03:32:53.001Z,38.28
2023-09-30T03:37:56.025Z,42.10
2023-09-30T03:43:00.346Z,39.08
2023-09-30T03:48:04.151Z,38.25
2023-09-30T03:53:08.719Z,37.97
2023-09-30T03:58:13.905Z,38.25
2023-09-30T04:03:17.020Z,37.88
2023-09-30T04:08:20.320Z,38.13
2023-09-30T04:13:25.635Z,37.65
2023-09-30T04:18:28.748Z,38.13
2023-09-30T04:23:31.832Z,38.22
2023-09-30T04:28:36.207Z,38.00
2023-09-30T04:33:40.853Z,38.00
2023-09-30T04:38:44.373Z,37.65
2023-09-30T04:43:49.057Z,38.78
2023-09-30T04:48:53.574Z,37.83
2023-09-30T04:53:57.085Z,38.22
2023-09-30T04:59:02.208Z,37.92
2023-09-30T05:04:05.783Z,37.60
2023-09-30T05:09:09.308Z,37.42
2023-09-30T05:14:14.335Z,37.78
2023-09-30T05:19:17.449Z,37.67
2023-09-30T05:24:22.162Z,37.70
2023-09-30T05:29:26.522Z,37.85
2023-09-30T05:34:29.885Z,37.63
2023-09-30T05:39:33.049Z,37.65
2023-09-30T05:44:37.414Z,38.42
2023-09-30T05:49:40.410Z,38.08
2023-09-30T05:54:43.493Z,41.35
2023-09-30T05:59:48.200Z,40.72
2023-09-30T06:04:54.583Z,40.40
2023-09-30T06:09:58.706Z,39.40
2023-09-30T06:15:03.862Z,39.22
2023-09-30T06:20:10.488Z,38.30
2023-09-30T06:25:17.500Z,38.45
2023-09-30T06:30:22.464Z,39.83
2023-09-30T06:35:27.232Z,38.70
2023-09-30T06:40:31.482Z,39.17
2023-09-30T06:45:40.847Z,39.40
2023-09-30T06:50:46.823Z,39.58
2023-09-30T06:55:49.770Z,40.28
2023-09-30T07:00:55.485Z,39.17
2023-09-30T07:06:01.620Z,39.53
2023-09-30T07:11:06.403Z,39.17
2023-09-30T07:16:11.445Z,39.33
2023-09-30T07:21:15.178Z,39.35
2023-09-30T07:26:18.117Z,39.22
2023-09-30T07:31:23.918Z,39.80
2023-09-30T07:36:26.920Z,39.33
2023-09-30T07:41:30.852Z,39.45
2023-09-30T07:46:49.682Z,38.88
2023-09-30T07:52:05.662Z,38.58
2023-09-30T07:57:22.722Z,38.38
2023-09-30T08:02:34.783Z,38.95
2023-09-30T08:07:54.586Z,39.55
2023-09-30T08:13:12.672Z,39.08
2023-09-30T08:18:17.647Z,38.40
2023-09-30T08:23:23.749Z,38.92
2023-09-30T08:28:27.177Z,39.17
2023-09-30T08:33:32.503Z,39.92
2023-09-30T08:38:36.771Z,39.67
2023-09-30T08:43:43.950Z,39.28
2023-09-30T08:48:54.442Z,38.83
2023-09-30T08:54:11.151Z,39.08
2023-09-30T08:59:15.530Z,39.50
2023-09-30T09:04:20.233Z,39.25
2023-09-30T09:09:28.095Z,39.72
2023-09-30T09:14:44.914Z,40.33
2023-09-30T09:20:03.995Z,41.03
2023-09-30T09:25:08.460Z,41.35
2023-09-30T09:30:19.327Z,43.13
2023-09-30T09:35:26.455Z,41.03
2023-09-30T09:40:30.704Z,39.78
2023-09-30T09:45:36.050Z,39.63
2023-09-30T09:50:40.673Z,40.33
2023-09-30T09:55:45.069Z,40.03
2023-09-30T10:00:48.570Z,39.97
2023-09-30T10:05:53.668Z,40.13
2023-09-30T10:10:59.228Z,39.78
2023-09-30T10:16:02.710Z,39.97
2023-09-30T10:21:14.436Z,39.40
2023-09-30T10:26:20.323Z,38.95
2023-09-30T10:31:26.807Z,38.95
2023-09-30T10:36:33.768Z,40.00
2023-09-30T10:42:01.176Z,38.80
2023-09-30T10:47:37.333Z,39.05
2023-09-30T10:52:42.510Z,39.60
2023-09-30T10:57:47.122Z,39.10
2023-09-30T11:02:52.340Z,40.53
2023-09-30T11:08:00.697Z,40.53
2023-09-30T11:13:03.774Z,39.92
2023-09-30T11:18:15.992Z,40.03
2023-09-30T11:23:20.789Z,39.38
2023-09-30T11:28:27.130Z,39.15
2023-09-30T11:33:31.307Z,40.05
2023-09-30T11:38:37.630Z,40.30
2023-09-30T11:43:40.622Z,40.00
2023-09-30T11:49:00.240Z,40.47
2023-09-30T11:54:07.186Z,40.05
2023-09-30T11:59:11.657Z,40.65
2023-09-30T12:04:14.654Z,40.35
2023-09-30T12:09:23.500Z,40.25
2023-09-30T12:14:26.911Z,40.28
2023-09-30T12:19:30.883Z,40.90
2023-09-30T12:24:35.250Z,40.45
2023-09-30T12:29:40.231Z,40.45
2023-09-30T12:34:43.451Z,40.10
2023-09-30T12:39:48.865Z,40.28
2023-09-30T12:44:52.167Z,41.47
2023-09-30T12:49:58.925Z,40.60
2023-09-30T12:55:06.384Z,41.40
2023-09-30T13:00:10.976Z,40.72
2023-09-30T13:05:21.640Z,40.90
2023-09-30T13:10:33.146Z,40.65
2023-09-30T13:15:36.197Z,41.10
2023-09-30T13:20:39.422Z,40.55
2023-09-30T13:25:43.688Z,40.72
2023-09-30T13:30:46.827Z,40.63
2023-09-30T13:35:49.787Z,45.10
2023-09-30T13:40:58.688Z,42.20
2023-09-30T13:46:07.915Z,40.65
2023-09-30T13:51:12.582Z,40.67
2023-09-30T13:56:16.957Z,40.47
2023-09-30T14:01:21.114Z,41.28
2023-09-30T14:06:24.158Z,41.05
2023-09-30T14:11:28.944Z,40.80
2023-09-30T14:16:31.910Z,40.50
2023-09-30T14:21:34.923Z,40.70
2023-09-30T14:26:40.440Z,41.08
2023-09-30T14:31:43.461Z,40.70
2023-09-30T14:36:46.478Z,41.17
2023-09-30T14:41:50.776Z,41.10
2023-09-30T14:46:54.437Z,40.58
2023-09-30T14:51:59.026Z,41.13
2023-09-30T14:57:03.502Z,41.10
2023-09-30T15:02:09.367Z,41.85
2023-09-30T15:07:13.243Z,41.70
2023-09-30T15:12:17.593Z,41.28
2023-09-30T15:17:20.507Z,42.30
2023-09-30T15:22:23.520Z,40.90
2023-09-30T15:27:28.265Z,41.10
2023-09-30T15:32:32.057Z,41.35
2023-09-30T15:37:35.784Z,41.40
2023-09-30T15:42:41.450Z,41.95
2023-09-30T15:47:44.659Z,42.65
2023-09-30T15:52:47.665Z,41.67
2023-09-30T15:57:52.022Z,41.67
2023-09-30T16:02:55.651Z,41.20
2023-09-30T16:07:58.723Z,41.90
2023-09-30T16:13:03.279Z,41.85
2023-09-30T16:18:06.634Z,41.85
2023-09-30T16:23:09.529Z,41.40
2023-09-30T16:28:13.942Z,40.97
2023-09-30T16:33:19.548Z,41.28
2023-09-30T16:38:22.615Z,42.20
2023-09-30T16:43:26.889Z,40.90
2023-09-30T16:48:29.917Z,41.75
2023-09-30T16:53:32.842Z,41.40
2023-09-30T16:58:37.465Z,41.28
2023-09-30T17:03:40.644Z,40.40
2023-09-30T17:08:43.613Z,40.42
2023-09-30T17:13:48.061Z,41.30
2023-09-30T17:18:51.393Z,41.08
2023-09-30T17:23:55.683Z,41.28
2023-09-30T17:28:59.967Z,41.13
2023-09-30T17:34:03.176Z,42.10
2023-09-30T17:39:06.327Z,41.15
2023-09-30T17:44:11.000Z,41.45
2023-09-30T17:49:14.017Z,41.85
2023-09-30T17:54:17.141Z,41.03
2023-09-30T17:59:21.398Z,41.45
2023-09-30T18:04:24.614Z,41.75
2023-09-30T18:09:27.758Z,41.38
2023-09-30T18:14:32.148Z,40.60
2023-09-30T18:19:35.281Z,41.30
2023-09-30T18:24:38.381Z,41.33
2023-09-30T18:29:44.222Z,40.72
2023-09-30T18:34:47.340Z,41.13
2023-09-30T18:39:51.622Z,41.97
2023-09-30T18:44:56.087Z,41.58
2023-09-30T18:50:00.581Z,41.67
2023-09-30T18:55:03.577Z,41.15
2023-09-30T19:00:09.152Z,40.97
2023-09-30T19:05:12.758Z,41.20
2023-09-30T19:10:16.770Z,41.03
2023-09-30T19:15:21.506Z,40.60
2023-09-30T19:20:24.586Z,41.28
2023-09-30T19:25:27.894Z,40.88
2023-09-30T19:30:32.205Z,40.45
2023-09-30T19:35:35.191Z,40.05
2023-09-30T19:40:39.229Z,41.08
2023-09-30T19:45:43.568Z,40.70
2023-09-30T19:50:46.600Z,40.53
2023-09-30T19:55:51.689Z,39.47
2023-09-30T20:00:56.238Z,39.72
2023-09-30T20:05:59.195Z,40.05
2023-09-30T20:11:02.402Z,39.83
2023-09-30T20:16:06.796Z,39.65
2023-09-30T20:21:09.996Z,40.22
2023-09-30T20:26:15.152Z,40.22
2023-09-30T20:31:20.477Z,40.20
2023-09-30T20:36:23.477Z,40.05
2023-09-30T20:42:18.554Z,40.67
2023-09-30T20:54:00.020Z,39.70
2023-09-30T20:59:03.603Z,39.97
2023-09-30T21:04:07.902Z,39.30
2023-09-30T21:09:13.847Z,39.92
2023-09-30T21:14:16.848Z,40.63
2023-09-30T21:19:19.858Z,39.75
2023-09-30T21:24:24.719Z,39.15
2023-09-30T21:29:28.140Z,39.92
2023-09-30T21:34:31.116Z,39.20
2023-09-30T21:39:35.470Z,39.17
2023-09-30T21:44:38.460Z,39.05
2023-09-30T21:49:41.422Z,41.42
2023-09-30T21:54:45.960Z,43.63
2023-09-30T21:59:49.173Z,42.85
2023-09-30T22:04:53.025Z,41.63
2023-09-30T22:09:57.485Z,42.30
2023-09-30T22:15:00.635Z,40.78
2023-09-30T22:20:03.866Z,40.78
2023-09-30T22:25:10.347Z,39.53
2023-09-30T22:30:14.372Z,39.72
2023-09-30T22:40:58.733Z,39.85
2023-09-30T22:46:01.828Z,39.90
2023-09-30T22:51:05.010Z,38.88
2023-09-30T22:56:09.340Z,39.20
2023-09-30T23:01:17.074Z,38.83
2023-09-30T23:06:20.895Z,39.22
2023-09-30T23:11:25.211Z,39.67
2023-09-30T23:16:28.232Z,39.22
2023-09-30T23:21:31.300Z,38.63
2023-09-30T23:26:35.765Z,39.20
2023-09-30T23:31:42.465Z,38.70
2023-09-30T23:36:46.454Z,39.17
2023-09-30T23:41:50.891Z,38.88
2023-09-30T23:46:54.700Z,39.35
2023-09-30T23:51:58.187Z,38.80
2023-09-30T23:57:03.582Z,39.33
